Norton, Massachusetts
Current Conditions -  °F | °C
As of 3:52 PM on Thursday 18 Dec 2014 (Local Time) from KTAN Reporting Station
Broken Clouds Broken Clouds  
Wind Chill: 38°   Ceiling: 3700
Heat Index: 41°   Visibility: 10mi
Dew Point: 27°   Wind: 5mph
Humidity: 57%   Direction: 300°WNW
Pressure: 29.82"   Gusts: NA
Location:  41.97°N, 71.19°W
Report Text: KTAN 182052Z AUTO 30004KT 10SM BKN037 05/M03 A2982 RMK AO2 SLP096 T00501028 53013
Loading
Personal Weather Stations






























Interactive Weather Map New forecast layout! Learn more

10-Day Weather Forecast

Advertisements
Track Severe Weather on mobile